Bay City, TX (77404)

7:19 AM CST on December 07, 2016 (GMT -0600)
APRSWXNET | | Change Station

Elev 53 ft 28.99 °N, 95.98 °W | Updated 35 minutes ago

Overcast
Overcast
49 °F
Feels Like 48 °F
N
4
Wind Variable Wind from East
Gusts 10.0 mph

Today
High -- | Low -- °F
--% Chance of Precip.
Yesterday
High -- | Low -- °F
Precip. -- in
Pressure 30.07 in
Visibility 5.0 miles
Clouds Overcast 300 ft
Windchill 48 °F
Dew Point 48 °F
Humidity 97%
Rainfall in
Snow Depth Not available.
7:04 AM 5:26 PM
First Quarter, 52% visible
METAR KBYY 071255Z AUTO 00000KT 5SM BR OVC003 10/10 A3007 RMK AO2 T01010101
Pressure 30.07 in
Visibility 5.0 miles
Clouds Overcast 300 ft
Windchill 48 °F
Dew Point 48 °F
Humidity 97%
Rainfall in
Snow Depth Not available.
7:04 AM 5:26 PM
First Quarter, 52% visible
METAR KBYY 071255Z AUTO 00000KT 5SM BR OVC003 10/10 A3007 RMK AO2 T01010101

10-Day Weather Forecast

Almanac

Astronomy

Dec. 07, 2016 Rise Set
Actual Time
Civil Twilight
Nautical Twilight
Astronomical Twilight
Moon
Length of Visible Light
Length of Day
Tomorrow will be .
, % of the Moon is Illuminated

Today's Extremes

State Highs State Lows

Community

WunderPhotos

Upload Photos

1,956,112 photos uploaded!

WunderBlog® & News

Nearby

Air Quality

  Air Quality AQ Index Pollutant
Not available.

Snow Depth

Station Depth Elevation

Earthquake Activity

City Distance Mag. Time & Date
Minimum magnitude displayed is 2.5.

Coastal Water Temperatures

Place Temperature

Stations

Nearby Weather Stations

Station Location Temp. Windchill Dew Point Humidity Wind Precip. Elev Updated Type
                   

Watches & Warnings

There are currently no watches in effect.